Terminal Aerodrome Forecast
Issued by NWS

Home | Current Version | Previous Version | Graphics & Text | Print | Product List | Glossary On
Versions: 1 2 3 4 5 6 7 8 9 10 11 12 13 14 15 16 17 18 19 20 21 22 23
708
FTUS43 KBIS 161402 AAA
TAFMOT
TAF AMD
KMOT 161402Z 1614/1712 27004KT 1/4SM FG VV002
     FM161500 28005KT 3SM BR SCT007
      TEMPO 1615/1616 1SM BR BKN004
     FM161600 32005KT P6SM FEW010
     FM161800 34007KT P6SM FEW200=

USA.gov is the U.S. government's official web portal to all federal, state and local government web resources and services.